sensor_id;sensor_type;location;lat;lon;timestamp;temperature;humidity
9389;DHT22;4734;52.778;6.798;2024-02-16T00:00:41;11.00;99.90
9389;DHT22;4734;52.778;6.798;2024-02-16T00:03:28;11.00;99.90
9389;DHT22;4734;52.778;6.798;2024-02-16T00:06:14;11.00;99.90
9389;DHT22;4734;52.778;6.798;2024-02-16T00:08:59;11.00;99.90
9389;DHT22;4734;52.778;6.798;2024-02-16T00:11:47;11.00;99.90
9389;DHT22;4734;52.778;6.798;2024-02-16T00:14:32;11.00;99.90
9389;DHT22;4734;52.778;6.798;2024-02-16T00:17:18;10.90;99.90
9389;DHT22;4734;52.778;6.798;2024-02-16T00:20:04;10.90;99.90
9389;DHT22;4734;52.778;6.798;2024-02-16T00:22:51;11.00;99.90
9389;DHT22;4734;52.778;6.798;2024-02-16T00:25:36;10.90;99.90
9389;DHT22;4734;52.778;6.798;2024-02-16T00:28:24;10.90;99.90
9389;DHT22;4734;52.778;6.798;2024-02-16T00:31:10;10.90;99.90
9389;DHT22;4734;52.778;6.798;2024-02-16T00:33:55;10.90;99.90
9389;DHT22;4734;52.778;6.798;2024-02-16T00:36:41;10.90;99.90
9389;DHT22;4734;52.778;6.798;2024-02-16T00:39:27;10.90;99.90
9389;DHT22;4734;52.778;6.798;2024-02-16T00:42:12;10.90;99.90
9389;DHT22;4734;52.778;6.798;2024-02-16T00:44:59;10.90;99.90
9389;DHT22;4734;52.778;6.798;2024-02-16T00:47:45;10.90;99.90
9389;DHT22;4734;52.778;6.798;2024-02-16T00:50:33;10.90;99.90
9389;DHT22;4734;52.778;6.798;2024-02-16T00:53:19;10.90;99.90
9389;DHT22;4734;52.778;6.798;2024-02-16T00:56:05;10.90;99.90
9389;DHT22;4734;52.778;6.798;2024-02-16T00:58:51;10.80;99.90
9389;DHT22;4734;52.778;6.798;2024-02-16T01:01:38;10.80;99.90
9389;DHT22;4734;52.778;6.798;2024-02-16T01:04:23;10.80;99.90
9389;DHT22;4734;52.778;6.798;2024-02-16T01:07:09;10.80;99.90
9389;DHT22;4734;52.778;6.798;2024-02-16T01:09:56;10.80;99.90
9389;DHT22;4734;52.778;6.798;2024-02-16T01:12:41;10.80;99.90
9389;DHT22;4734;52.778;6.798;2024-02-16T01:15:27;10.80;99.90
9389;DHT22;4734;52.778;6.798;2024-02-16T01:18:14;10.80;99.90
9389;DHT22;4734;52.778;6.798;2024-02-16T01:21:00;10.80;99.90
9389;DHT22;4734;52.778;6.798;2024-02-16T01:23:47;10.80;99.90
9389;DHT22;4734;52.778;6.798;2024-02-16T01:26:33;10.80;99.90
9389;DHT22;4734;52.778;6.798;2024-02-16T01:29:18;10.70;99.90
9389;DHT22;4734;52.778;6.798;2024-02-16T01:32:04;10.70;99.90
9389;DHT22;4734;52.778;6.798;2024-02-16T01:34:51;10.70;99.90
9389;DHT22;4734;52.778;6.798;2024-02-16T01:37:37;10.70;99.90
9389;DHT22;4734;52.778;6.798;2024-02-16T01:40:22;10.70;99.90
9389;DHT22;4734;52.778;6.798;2024-02-16T01:43:10;10.70;99.90
9389;DHT22;4734;52.778;6.798;2024-02-16T01:45:55;10.70;99.90
9389;DHT22;4734;52.778;6.798;2024-02-16T01:48:43;10.70;99.90
9389;DHT22;4734;52.778;6.798;2024-02-16T01:51:31;10.60;99.90
9389;DHT22;4734;52.778;6.798;2024-02-16T01:54:17;10.60;99.90
9389;DHT22;4734;52.778;6.798;2024-02-16T01:57:05;10.60;99.90
9389;DHT22;4734;52.778;6.798;2024-02-16T01:59:51;10.60;99.90
9389;DHT22;4734;52.778;6.798;2024-02-16T02:02:38;10.60;99.90
9389;DHT22;4734;52.778;6.798;2024-02-16T02:05:23;10.60;99.90
9389;DHT22;4734;52.778;6.798;2024-02-16T02:08:12;10.60;99.90
9389;DHT22;4734;52.778;6.798;2024-02-16T02:10:57;10.60;99.90
9389;DHT22;4734;52.778;6.798;2024-02-16T02:13:43;10.60;99.90
9389;DHT22;4734;52.778;6.798;2024-02-16T02:16:28;10.50;99.90
9389;DHT22;4734;52.778;6.798;2024-02-16T02:19:14;10.50;99.90
9389;DHT22;4734;52.778;6.798;2024-02-16T02:22:00;10.50;99.90
9389;DHT22;4734;52.778;6.798;2024-02-16T02:24:48;10.60;99.90
9389;DHT22;4734;52.778;6.798;2024-02-16T02:27:34;10.50;99.90
9389;DHT22;4734;52.778;6.798;2024-02-16T02:30:19;10.50;99.90
9389;DHT22;4734;52.778;6.798;2024-02-16T02:33:06;10.50;99.90
9389;DHT22;4734;52.778;6.798;2024-02-16T02:35:53;10.50;99.90
9389;DHT22;4734;52.778;6.798;2024-02-16T02:38:39;10.50;99.90
9389;DHT22;4734;52.778;6.798;2024-02-16T02:41:26;10.50;99.90
9389;DHT22;4734;52.778;6.798;2024-02-16T02:44:11;10.50;99.90
9389;DHT22;4734;52.778;6.798;2024-02-16T02:46:57;10.50;99.90
9389;DHT22;4734;52.778;6.798;2024-02-16T02:49:42;10.50;99.90
9389;DHT22;4734;52.778;6.798;2024-02-16T02:52:28;10.50;99.90
9389;DHT22;4734;52.778;6.798;2024-02-16T02:55:13;10.50;99.90
9389;DHT22;4734;52.778;6.798;2024-02-16T02:58:00;10.50;99.90
9389;DHT22;4734;52.778;6.798;2024-02-16T03:00:46;10.50;99.90
9389;DHT22;4734;52.778;6.798;2024-02-16T03:03:32;10.50;99.90
9389;DHT22;4734;52.778;6.798;2024-02-16T03:06:18;10.40;99.90
9389;DHT22;4734;52.778;6.798;2024-02-16T03:09:03;10.40;99.90
9389;DHT22;4734;52.778;6.798;2024-02-16T03:11:49;10.40;99.90
9389;DHT22;4734;52.778;6.798;2024-02-16T03:14:36;10.40;99.90
9389;DHT22;4734;52.778;6.798;2024-02-16T03:17:22;10.40;99.90
9389;DHT22;4734;52.778;6.798;2024-02-16T03:20:09;10.40;99.90
9389;DHT22;4734;52.778;6.798;2024-02-16T03:22:55;10.30;99.90
9389;DHT22;4734;52.778;6.798;2024-02-16T03:25:41;10.30;99.90
9389;DHT22;4734;52.778;6.798;2024-02-16T03:28:27;10.30;99.90
9389;DHT22;4734;52.778;6.798;2024-02-16T03:31:22;10.30;99.90
9389;DHT22;4734;52.778;6.798;2024-02-16T03:34:08;10.30;99.90
9389;DHT22;4734;52.778;6.798;2024-02-16T03:36:53;10.30;99.90
9389;DHT22;4734;52.778;6.798;2024-02-16T03:39:39;10.30;99.90
9389;DHT22;4734;52.778;6.798;2024-02-16T03:42:25;10.30;99.90
9389;DHT22;4734;52.778;6.798;2024-02-16T03:45:11;10.30;99.90
9389;DHT22;4734;52.778;6.798;2024-02-16T03:47:57;10.30;99.90
9389;DHT22;4734;52.778;6.798;2024-02-16T03:50:43;10.30;99.90
9389;DHT22;4734;52.778;6.798;2024-02-16T03:53:29;10.30;99.90
9389;DHT22;4734;52.778;6.798;2024-02-16T03:56:20;10.30;99.90
9389;DHT22;4734;52.778;6.798;2024-02-16T03:59:06;10.30;99.90
9389;DHT22;4734;52.778;6.798;2024-02-16T04:01:51;10.30;99.90
9389;DHT22;4734;52.778;6.798;2024-02-16T04:04:38;10.30;99.90
9389;DHT22;4734;52.778;6.798;2024-02-16T04:07:24;10.30;99.90
9389;DHT22;4734;52.778;6.798;2024-02-16T04:10:09;10.30;99.90
9389;DHT22;4734;52.778;6.798;2024-02-16T04:12:55;10.20;99.90
9389;DHT22;4734;52.778;6.798;2024-02-16T04:15:40;10.20;99.90
9389;DHT22;4734;52.778;6.798;2024-02-16T04:18:26;10.30;99.90
9389;DHT22;4734;52.778;6.798;2024-02-16T04:21:13;10.30;99.90
9389;DHT22;4734;52.778;6.798;2024-02-16T04:23:59;10.30;99.90
9389;DHT22;4734;52.778;6.798;2024-02-16T04:26:44;10.30;99.90
9389;DHT22;4734;52.778;6.798;2024-02-16T04:29:30;10.30;99.90
9389;DHT22;4734;52.778;6.798;2024-02-16T04:32:15;10.30;99.90
9389;DHT22;4734;52.778;6.798;2024-02-16T04:35:01;10.20;99.90
9389;DHT22;4734;52.778;6.798;2024-02-16T04:37:48;10.30;99.90
9389;DHT22;4734;52.778;6.798;2024-02-16T04:40:36;10.30;99.90
9389;DHT22;4734;52.778;6.798;2024-02-16T04:43:22;10.20;99.90
9389;DHT22;4734;52.778;6.798;2024-02-16T04:46:14;10.20;99.90
9389;DHT22;4734;52.778;6.798;2024-02-16T04:48:59;10.20;99.90
9389;DHT22;4734;52.778;6.798;2024-02-16T04:51:45;10.20;99.90
9389;DHT22;4734;52.778;6.798;2024-02-16T04:54:32;10.20;99.90
9389;DHT22;4734;52.778;6.798;2024-02-16T04:57:18;10.20;99.90
9389;DHT22;4734;52.778;6.798;2024-02-16T05:00:04;10.20;99.90
9389;DHT22;4734;52.778;6.798;2024-02-16T05:02:50;10.20;99.90
9389;DHT22;4734;52.778;6.798;2024-02-16T05:05:36;10.20;99.90
9389;DHT22;4734;52.778;6.798;2024-02-16T05:08:22;10.20;99.90
9389;DHT22;4734;52.778;6.798;2024-02-16T05:11:09;10.20;99.90
9389;DHT22;4734;52.778;6.798;2024-02-16T05:13:55;10.20;99.90
9389;DHT22;4734;52.778;6.798;2024-02-16T05:16:43;10.20;99.90
9389;DHT22;4734;52.778;6.798;2024-02-16T05:19:32;10.20;99.90
9389;DHT22;4734;52.778;6.798;2024-02-16T05:22:17;10.20;99.90
9389;DHT22;4734;52.778;6.798;2024-02-16T05:25:03;10.20;99.90
9389;DHT22;4734;52.778;6.798;2024-02-16T05:27:50;10.20;99.90
9389;DHT22;4734;52.778;6.798;2024-02-16T05:30:36;10.10;99.90
9389;DHT22;4734;52.778;6.798;2024-02-16T05:33:21;10.10;99.90
9389;DHT22;4734;52.778;6.798;2024-02-16T05:36:07;10.10;99.90
9389;DHT22;4734;52.778;6.798;2024-02-16T05:38:53;10.10;99.90
9389;DHT22;4734;52.778;6.798;2024-02-16T05:41:40;10.10;99.90
9389;DHT22;4734;52.778;6.798;2024-02-16T05:44:27;10.10;99.90
9389;DHT22;4734;52.778;6.798;2024-02-16T05:47:12;10.10;99.90
9389;DHT22;4734;52.778;6.798;2024-02-16T05:49:58;10.10;99.90
9389;DHT22;4734;52.778;6.798;2024-02-16T05:52:44;10.10;99.90
9389;DHT22;4734;52.778;6.798;2024-02-16T05:55:29;10.10;99.90
9389;DHT22;4734;52.778;6.798;2024-02-16T05:58:15;10.10;99.90
9389;DHT22;4734;52.778;6.798;2024-02-16T06:01:03;10.10;99.90
9389;DHT22;4734;52.778;6.798;2024-02-16T06:03:49;10.10;99.90
9389;DHT22;4734;52.778;6.798;2024-02-16T06:06:36;10.10;99.90
9389;DHT22;4734;52.778;6.798;2024-02-16T06:09:22;10.10;99.90
9389;DHT22;4734;52.778;6.798;2024-02-16T06:12:09;10.10;99.90
9389;DHT22;4734;52.778;6.798;2024-02-16T06:14:55;10.10;99.90
9389;DHT22;4734;52.778;6.798;2024-02-16T06:17:43;10.10;99.90
9389;DHT22;4734;52.778;6.798;2024-02-16T06:20:28;10.10;99.90
9389;DHT22;4734;52.778;6.798;2024-02-16T06:23:14;10.10;99.90
9389;DHT22;4734;52.778;6.798;2024-02-16T06:26:01;10.10;99.90
9389;DHT22;4734;52.778;6.798;2024-02-16T06:28:46;10.10;99.90
9389;DHT22;4734;52.778;6.798;2024-02-16T06:31:32;10.20;99.90
9389;DHT22;4734;52.778;6.798;2024-02-16T06:34:19;10.20;99.90
9389;DHT22;4734;52.778;6.798;2024-02-16T06:37:05;10.10;99.90
9389;DHT22;4734;52.778;6.798;2024-02-16T06:39:50;10.20;99.90
9389;DHT22;4734;52.778;6.798;2024-02-16T06:42:36;10.20;99.90
9389;DHT22;4734;52.778;6.798;2024-02-16T06:45:22;10.20;99.90
9389;DHT22;4734;52.778;6.798;2024-02-16T06:48:08;10.20;99.90
9389;DHT22;4734;52.778;6.798;2024-02-16T06:50:55;10.20;99.90
9389;DHT22;4734;52.778;6.798;2024-02-16T06:53:41;10.10;99.90
9389;DHT22;4734;52.778;6.798;2024-02-16T06:56:26;10.20;99.90
9389;DHT22;4734;52.778;6.798;2024-02-16T06:59:12;10.10;99.90
9389;DHT22;4734;52.778;6.798;2024-02-16T07:01:57;10.20;99.90
9389;DHT22;4734;52.778;6.798;2024-02-16T07:04:43;10.20;99.90
9389;DHT22;4734;52.778;6.798;2024-02-16T07:07:30;10.20;99.90
9389;DHT22;4734;52.778;6.798;2024-02-16T07:10:20;10.20;99.90
9389;DHT22;4734;52.778;6.798;2024-02-16T07:13:05;10.20;99.90
9389;DHT22;4734;52.778;6.798;2024-02-16T07:15:51;10.20;99.90
9389;DHT22;4734;52.778;6.798;2024-02-16T07:18:36;10.20;99.90
9389;DHT22;4734;52.778;6.798;2024-02-16T07:21:22;10.20;99.90
9389;DHT22;4734;52.778;6.798;2024-02-16T07:24:11;10.20;99.90
9389;DHT22;4734;52.778;6.798;2024-02-16T07:26:57;10.20;99.90
9389;DHT22;4734;52.778;6.798;2024-02-16T07:29:43;10.20;99.90
9389;DHT22;4734;52.778;6.798;2024-02-16T07:32:29;10.20;99.90
9389;DHT22;4734;52.778;6.798;2024-02-16T07:35:15;10.20;99.90
9389;DHT22;4734;52.778;6.798;2024-02-16T07:38:00;10.20;99.90
9389;DHT22;4734;52.778;6.798;2024-02-16T07:40:47;10.20;99.90
9389;DHT22;4734;52.778;6.798;2024-02-16T07:43:34;10.20;99.90
9389;DHT22;4734;52.778;6.798;2024-02-16T07:46:20;10.20;99.90
9389;DHT22;4734;52.778;6.798;2024-02-16T07:49:05;10.20;99.90
9389;DHT22;4734;52.778;6.798;2024-02-16T07:51:51;10.30;99.90
9389;DHT22;4734;52.778;6.798;2024-02-16T07:54:37;10.30;99.90
9389;DHT22;4734;52.778;6.798;2024-02-16T07:57:24;10.30;99.90
9389;DHT22;4734;52.778;6.798;2024-02-16T08:00:11;10.30;99.90
9389;DHT22;4734;52.778;6.798;2024-02-16T08:02:57;10.30;99.90
9389;DHT22;4734;52.778;6.798;2024-02-16T08:05:42;10.40;99.90
9389;DHT22;4734;52.778;6.798;2024-02-16T08:08:28;10.40;99.90
9389;DHT22;4734;52.778;6.798;2024-02-16T08:11:13;10.40;99.90
9389;DHT22;4734;52.778;6.798;2024-02-16T08:14:03;10.40;99.90
9389;DHT22;4734;52.778;6.798;2024-02-16T08:16:48;10.40;99.90
9389;DHT22;4734;52.778;6.798;2024-02-16T08:19:37;10.40;99.90
9389;DHT22;4734;52.778;6.798;2024-02-16T08:22:23;10.50;99.90
9389;DHT22;4734;52.778;6.798;2024-02-16T08:25:09;10.50;99.90
9389;DHT22;4734;52.778;6.798;2024-02-16T08:27:54;10.50;99.90
9389;DHT22;4734;52.778;6.798;2024-02-16T08:30:43;10.50;99.90
9389;DHT22;4734;52.778;6.798;2024-02-16T08:33:29;10.50;99.90
9389;DHT22;4734;52.778;6.798;2024-02-16T08:36:15;10.50;99.90
9389;DHT22;4734;52.778;6.798;2024-02-16T08:39:01;10.50;99.90
9389;DHT22;4734;52.778;6.798;2024-02-16T08:41:49;10.60;99.90
9389;DHT22;4734;52.778;6.798;2024-02-16T08:44:34;10.60;99.90
9389;DHT22;4734;52.778;6.798;2024-02-16T08:47:22;10.60;99.90
9389;DHT22;4734;52.778;6.798;2024-02-16T08:50:11;10.60;99.90
9389;DHT22;4734;52.778;6.798;2024-02-16T08:53:01;10.60;99.90
9389;DHT22;4734;52.778;6.798;2024-02-16T08:55:54;10.60;99.90
9389;DHT22;4734;52.778;6.798;2024-02-16T08:59:18;10.70;99.90
9389;DHT22;4734;52.778;6.798;2024-02-16T09:05:13;10.70;99.90
9389;DHT22;4734;52.778;6.798;2024-02-16T09:07:58;10.70;99.90
9389;DHT22;4734;52.778;6.798;2024-02-16T09:10:49;10.70;99.90
9389;DHT22;4734;52.778;6.798;2024-02-16T09:13:35;10.80;99.90
9389;DHT22;4734;52.778;6.798;2024-02-16T09:16:30;10.80;99.90
9389;DHT22;4734;52.778;6.798;2024-02-16T09:19:15;10.80;99.90
9389;DHT22;4734;52.778;6.798;2024-02-16T09:22:02;10.80;99.90
9389;DHT22;4734;52.778;6.798;2024-02-16T09:24:50;10.90;99.90
9389;DHT22;4734;52.778;6.798;2024-02-16T09:27:36;10.90;99.90
9389;DHT22;4734;52.778;6.798;2024-02-16T09:30:24;10.90;99.90
9389;DHT22;4734;52.778;6.798;2024-02-16T09:33:10;10.90;99.90
9389;DHT22;4734;52.778;6.798;2024-02-16T09:35:55;11.00;99.90
9389;DHT22;4734;52.778;6.798;2024-02-16T09:38:42;11.00;99.90
9389;DHT22;4734;52.778;6.798;2024-02-16T09:41:28;11.00;99.90
9389;DHT22;4734;52.778;6.798;2024-02-16T09:44:14;11.00;99.90
9389;DHT22;4734;52.778;6.798;2024-02-16T09:47:00;11.10;99.90
9389;DHT22;4734;52.778;6.798;2024-02-16T09:49:47;11.10;99.90
9389;DHT22;4734;52.778;6.798;2024-02-16T09:52:47;11.10;99.90
9389;DHT22;4734;52.778;6.798;2024-02-16T09:55:42;11.20;99.90
9389;DHT22;4734;52.778;6.798;2024-02-16T09:58:31;11.20;99.90
9389;DHT22;4734;52.778;6.798;2024-02-16T10:01:18;11.20;99.90
9389;DHT22;4734;52.778;6.798;2024-02-16T10:04:08;11.30;99.90
9389;DHT22;4734;52.778;6.798;2024-02-16T10:06:54;11.30;99.90
9389;DHT22;4734;52.778;6.798;2024-02-16T10:09:44;11.30;99.90
9389;DHT22;4734;52.778;6.798;2024-02-16T10:12:34;11.40;99.90
9389;DHT22;4734;52.778;6.798;2024-02-16T10:15:20;11.40;99.90
9389;DHT22;4734;52.778;6.798;2024-02-16T10:18:06;11.50;99.90
9389;DHT22;4734;52.778;6.798;2024-02-16T10:20:52;11.50;99.90
9389;DHT22;4734;52.778;6.798;2024-02-16T10:23:38;11.50;99.90
9389;DHT22;4734;52.778;6.798;2024-02-16T10:26:23;11.60;99.90
9389;DHT22;4734;52.778;6.798;2024-02-16T10:29:11;11.60;99.90
9389;DHT22;4734;52.778;6.798;2024-02-16T10:31:58;11.60;99.90
9389;DHT22;4734;52.778;6.798;2024-02-16T10:34:45;11.70;99.90
9389;DHT22;4734;52.778;6.798;2024-02-16T10:37:31;11.70;99.90
9389;DHT22;4734;52.778;6.798;2024-02-16T10:40:18;11.80;99.90
9389;DHT22;4734;52.778;6.798;2024-02-16T10:43:05;11.80;99.90
9389;DHT22;4734;52.778;6.798;2024-02-16T10:45:54;11.80;99.90
9389;DHT22;4734;52.778;6.798;2024-02-16T10:48:42;11.90;99.90
9389;DHT22;4734;52.778;6.798;2024-02-16T10:51:30;11.90;99.90
9389;DHT22;4734;52.778;6.798;2024-02-16T10:54:19;12.00;99.90
9389;DHT22;4734;52.778;6.798;2024-02-16T10:57:08;12.00;99.90
9389;DHT22;4734;52.778;6.798;2024-02-16T10:59:54;12.10;99.90
9389;DHT22;4734;52.778;6.798;2024-02-16T11:02:57;12.10;99.90
9389;DHT22;4734;52.778;6.798;2024-02-16T11:05:45;12.20;99.90
9389;DHT22;4734;52.778;6.798;2024-02-16T11:08:38;12.20;99.90
9389;DHT22;4734;52.778;6.798;2024-02-16T11:11:23;12.20;99.90
9389;DHT22;4734;52.778;6.798;2024-02-16T11:14:15;12.30;99.90
9389;DHT22;4734;52.778;6.798;2024-02-16T11:17:01;12.30;99.90
9389;DHT22;4734;52.778;6.798;2024-02-16T11:19:49;12.30;99.90
9389;DHT22;4734;52.778;6.798;2024-02-16T11:22:37;12.30;99.90
9389;DHT22;4734;52.778;6.798;2024-02-16T11:25:31;12.40;99.90
9389;DHT22;4734;52.778;6.798;2024-02-16T11:28:18;12.40;99.90
9389;DHT22;4734;52.778;6.798;2024-02-16T11:31:04;12.40;99.90
9389;DHT22;4734;52.778;6.798;2024-02-16T11:33:51;12.40;99.90
9389;DHT22;4734;52.778;6.798;2024-02-16T11:36:38;12.40;99.90
9389;DHT22;4734;52.778;6.798;2024-02-16T11:39:24;12.50;99.90
9389;DHT22;4734;52.778;6.798;2024-02-16T11:42:12;12.40;99.90
9389;DHT22;4734;52.778;6.798;2024-02-16T11:44:58;12.50;99.90
9389;DHT22;4734;52.778;6.798;2024-02-16T11:47:44;12.50;99.90
9389;DHT22;4734;52.778;6.798;2024-02-16T11:50:30;12.50;99.90
9389;DHT22;4734;52.778;6.798;2024-02-16T11:53:18;12.50;99.90
9389;DHT22;4734;52.778;6.798;2024-02-16T11:56:05;12.50;99.90
9389;DHT22;4734;52.778;6.798;2024-02-16T11:58:50;12.50;99.90
9389;DHT22;4734;52.778;6.798;2024-02-16T12:01:36;12.40;99.90
9389;DHT22;4734;52.778;6.798;2024-02-16T12:04:22;12.40;99.90
9389;DHT22;4734;52.778;6.798;2024-02-16T12:07:08;12.50;99.90
9389;DHT22;4734;52.778;6.798;2024-02-16T12:10:06;12.50;99.90
9389;DHT22;4734;52.778;6.798;2024-02-16T12:12:53;12.40;99.90
9389;DHT22;4734;52.778;6.798;2024-02-16T12:15:38;12.40;99.90
9389;DHT22;4734;52.778;6.798;2024-02-16T12:18:25;12.40;99.90
9389;DHT22;4734;52.778;6.798;2024-02-16T12:21:11;12.40;99.90
9389;DHT22;4734;52.778;6.798;2024-02-16T12:23:57;12.40;99.90
9389;DHT22;4734;52.778;6.798;2024-02-16T12:26:44;12.40;99.90
9389;DHT22;4734;52.778;6.798;2024-02-16T12:29:29;12.40;99.90
9389;DHT22;4734;52.778;6.798;2024-02-16T12:32:15;12.40;99.90
9389;DHT22;4734;52.778;6.798;2024-02-16T12:35:02;12.40;99.90
9389;DHT22;4734;52.778;6.798;2024-02-16T12:37:49;12.40;99.90
9389;DHT22;4734;52.778;6.798;2024-02-16T12:40:35;12.40;99.90
9389;DHT22;4734;52.778;6.798;2024-02-16T12:43:22;12.40;99.90
9389;DHT22;4734;52.778;6.798;2024-02-16T12:46:07;12.40;99.90
9389;DHT22;4734;52.778;6.798;2024-02-16T12:48:53;12.40;99.90
9389;DHT22;4734;52.778;6.798;2024-02-16T12:51:38;12.30;99.90
9389;DHT22;4734;52.778;6.798;2024-02-16T12:54:24;12.40;99.90
9389;DHT22;4734;52.778;6.798;2024-02-16T12:57:12;12.40;99.90
9389;DHT22;4734;52.778;6.798;2024-02-16T12:59:59;12.40;99.90
9389;DHT22;4734;52.778;6.798;2024-02-16T13:02:45;12.30;99.90
9389;DHT22;4734;52.778;6.798;2024-02-16T13:05:30;12.30;99.90
9389;DHT22;4734;52.778;6.798;2024-02-16T13:08:16;12.30;99.90
9389;DHT22;4734;52.778;6.798;2024-02-16T13:11:02;12.30;99.90
9389;DHT22;4734;52.778;6.798;2024-02-16T13:13:48;12.30;99.90
9389;DHT22;4734;52.778;6.798;2024-02-16T13:16:37;12.30;99.90
9389;DHT22;4734;52.778;6.798;2024-02-16T13:19:23;12.30;99.90
9389;DHT22;4734;52.778;6.798;2024-02-16T13:22:08;12.30;99.90
9389;DHT22;4734;52.778;6.798;2024-02-16T13:24:57;12.30;99.90
9389;DHT22;4734;52.778;6.798;2024-02-16T13:27:42;12.30;99.90
9389;DHT22;4734;52.778;6.798;2024-02-16T13:30:28;12.30;99.90
9389;DHT22;4734;52.778;6.798;2024-02-16T13:33:15;12.30;99.90
9389;DHT22;4734;52.778;6.798;2024-02-16T13:36:01;12.30;99.90
9389;DHT22;4734;52.778;6.798;2024-02-16T13:38:48;12.30;99.90
9389;DHT22;4734;52.778;6.798;2024-02-16T13:41:33;12.30;99.90
9389;DHT22;4734;52.778;6.798;2024-02-16T13:44:20;12.30;99.90
9389;DHT22;4734;52.778;6.798;2024-02-16T13:47:06;12.30;99.90
9389;DHT22;4734;52.778;6.798;2024-02-16T13:49:52;12.30;99.90
9389;DHT22;4734;52.778;6.798;2024-02-16T13:52:38;12.30;99.90
9389;DHT22;4734;52.778;6.798;2024-02-16T13:55:23;12.20;99.90
9389;DHT22;4734;52.778;6.798;2024-02-16T13:58:10;12.30;99.90
9389;DHT22;4734;52.778;6.798;2024-02-16T14:00:56;12.30;99.90
9389;DHT22;4734;52.778;6.798;2024-02-16T14:03:41;12.30;99.90
9389;DHT22;4734;52.778;6.798;2024-02-16T14:06:29;12.20;99.90
9389;DHT22;4734;52.778;6.798;2024-02-16T14:09:15;12.20;99.90
9389;DHT22;4734;52.778;6.798;2024-02-16T14:12:16;12.30;99.90
9389;DHT22;4734;52.778;6.798;2024-02-16T14:15:17;12.20;99.90
9389;DHT22;4734;52.778;6.798;2024-02-16T14:18:03;12.20;99.90
9389;DHT22;4734;52.778;6.798;2024-02-16T14:20:50;12.20;99.90
9389;DHT22;4734;52.778;6.798;2024-02-16T14:23:52;12.20;99.90
9389;DHT22;4734;52.778;6.798;2024-02-16T14:26:44;12.20;99.90
9389;DHT22;4734;52.778;6.798;2024-02-16T14:29:37;12.20;99.90
9389;DHT22;4734;52.778;6.798;2024-02-16T14:32:22;12.20;99.90
9389;DHT22;4734;52.778;6.798;2024-02-16T14:35:08;12.20;99.90
9389;DHT22;4734;52.778;6.798;2024-02-16T14:37:59;12.20;99.90
9389;DHT22;4734;52.778;6.798;2024-02-16T14:40:47;12.20;99.90
9389;DHT22;4734;52.778;6.798;2024-02-16T14:43:33;12.20;99.90
9389;DHT22;4734;52.778;6.798;2024-02-16T14:46:25;12.20;99.90
9389;DHT22;4734;52.778;6.798;2024-02-16T14:49:11;12.20;99.90
9389;DHT22;4734;52.778;6.798;2024-02-16T14:52:05;12.20;99.90
9389;DHT22;4734;52.778;6.798;2024-02-16T14:54:51;12.20;99.90
9389;DHT22;4734;52.778;6.798;2024-02-16T14:57:38;12.20;99.90
9389;DHT22;4734;52.778;6.798;2024-02-16T15:00:24;12.20;99.90
9389;DHT22;4734;52.778;6.798;2024-02-16T15:03:15;12.20;99.90
9389;DHT22;4734;52.778;6.798;2024-02-16T15:06:01;12.20;99.90
9389;DHT22;4734;52.778;6.798;2024-02-16T15:08:50;12.20;99.90
9389;DHT22;4734;52.778;6.798;2024-02-16T15:11:37;12.20;99.90
9389;DHT22;4734;52.778;6.798;2024-02-16T15:14:34;12.10;99.90
9389;DHT22;4734;52.778;6.798;2024-02-16T15:17:20;12.10;99.90
9389;DHT22;4734;52.778;6.798;2024-02-16T15:20:07;12.20;99.90
9389;DHT22;4734;52.778;6.798;2024-02-16T15:22:52;12.20;99.90
9389;DHT22;4734;52.778;6.798;2024-02-16T15:25:38;12.10;99.90
9389;DHT22;4734;52.778;6.798;2024-02-16T15:28:24;12.10;99.90
9389;DHT22;4734;52.778;6.798;2024-02-16T15:31:11;12.10;99.90
9389;DHT22;4734;52.778;6.798;2024-02-16T15:33:57;12.10;99.90
9389;DHT22;4734;52.778;6.798;2024-02-16T15:36:42;12.10;99.90
9389;DHT22;4734;52.778;6.798;2024-02-16T15:39:28;12.10;99.90
9389;DHT22;4734;52.778;6.798;2024-02-16T15:42:13;12.10;99.90
9389;DHT22;4734;52.778;6.798;2024-02-16T15:45:01;12.10;99.90
9389;DHT22;4734;52.778;6.798;2024-02-16T15:47:49;12.10;99.90
9389;DHT22;4734;52.778;6.798;2024-02-16T15:50:35;12.10;99.90
9389;DHT22;4734;52.778;6.798;2024-02-16T15:53:20;12.10;99.90
9389;DHT22;4734;52.778;6.798;2024-02-16T15:56:06;12.10;99.90
9389;DHT22;4734;52.778;6.798;2024-02-16T15:58:52;12.10;99.90
9389;DHT22;4734;52.778;6.798;2024-02-16T16:01:43;12.10;99.90
9389;DHT22;4734;52.778;6.798;2024-02-16T16:04:31;12.00;99.90
9389;DHT22;4734;52.778;6.798;2024-02-16T16:07:17;12.00;99.90
9389;DHT22;4734;52.778;6.798;2024-02-16T16:10:03;12.00;99.90
9389;DHT22;4734;52.778;6.798;2024-02-16T16:12:48;12.00;99.90
9389;DHT22;4734;52.778;6.798;2024-02-16T16:15:34;12.00;99.90
9389;DHT22;4734;52.778;6.798;2024-02-16T16:18:20;12.00;99.90
9389;DHT22;4734;52.778;6.798;2024-02-16T16:21:07;12.00;99.90
9389;DHT22;4734;52.778;6.798;2024-02-16T16:23:53;12.00;99.90
9389;DHT22;4734;52.778;6.798;2024-02-16T16:26:38;12.00;99.90
9389;DHT22;4734;52.778;6.798;2024-02-16T16:29:27;12.00;99.90
9389;DHT22;4734;52.778;6.798;2024-02-16T16:32:13;11.90;99.90
9389;DHT22;4734;52.778;6.798;2024-02-16T16:34:59;12.00;99.90
9389;DHT22;4734;52.778;6.798;2024-02-16T16:37:46;11.90;99.90
9389;DHT22;4734;52.778;6.798;2024-02-16T16:40:31;11.90;99.90
9389;DHT22;4734;52.778;6.798;2024-02-16T16:43:18;11.90;99.90
9389;DHT22;4734;52.778;6.798;2024-02-16T16:46:05;11.90;99.90
9389;DHT22;4734;52.778;6.798;2024-02-16T16:48:52;11.90;99.90
9389;DHT22;4734;52.778;6.798;2024-02-16T16:51:37;11.80;99.90
9389;DHT22;4734;52.778;6.798;2024-02-16T16:54:25;11.80;99.90
9389;DHT22;4734;52.778;6.798;2024-02-16T16:57:11;11.80;99.90
9389;DHT22;4734;52.778;6.798;2024-02-16T16:59:56;11.80;99.90
9389;DHT22;4734;52.778;6.798;2024-02-16T17:02:42;11.80;99.90
9389;DHT22;4734;52.778;6.798;2024-02-16T17:05:28;11.80;99.90
9389;DHT22;4734;52.778;6.798;2024-02-16T17:08:13;11.80;99.90
9389;DHT22;4734;52.778;6.798;2024-02-16T17:11:03;11.80;99.90
9389;DHT22;4734;52.778;6.798;2024-02-16T17:13:49;11.70;99.90
9389;DHT22;4734;52.778;6.798;2024-02-16T17:16:35;11.70;99.90
9389;DHT22;4734;52.778;6.798;2024-02-16T17:19:20;11.70;99.90
9389;DHT22;4734;52.778;6.798;2024-02-16T17:22:06;11.70;99.90
9389;DHT22;4734;52.778;6.798;2024-02-16T17:24:51;11.70;99.90
9389;DHT22;4734;52.778;6.798;2024-02-16T17:27:39;11.60;99.90
9389;DHT22;4734;52.778;6.798;2024-02-16T17:30:25;11.60;99.90
9389;DHT22;4734;52.778;6.798;2024-02-16T17:33:11;11.60;99.90
9389;DHT22;4734;52.778;6.798;2024-02-16T17:35:56;11.60;99.90
9389;DHT22;4734;52.778;6.798;2024-02-16T17:38:42;11.60;99.90
9389;DHT22;4734;52.778;6.798;2024-02-16T17:41:28;11.60;99.90
9389;DHT22;4734;52.778;6.798;2024-02-16T17:44:17;11.60;99.90
9389;DHT22;4734;52.778;6.798;2024-02-16T17:47:02;11.60;99.90
9389;DHT22;4734;52.778;6.798;2024-02-16T17:49:48;11.60;99.90
9389;DHT22;4734;52.778;6.798;2024-02-16T17:52:34;11.50;99.90
9389;DHT22;4734;52.778;6.798;2024-02-16T17:55:20;11.50;99.90
9389;DHT22;4734;52.778;6.798;2024-02-16T17:58:05;11.50;99.90
9389;DHT22;4734;52.778;6.798;2024-02-16T18:00:52;11.50;99.90
9389;DHT22;4734;52.778;6.798;2024-02-16T18:03:38;11.50;99.90
9389;DHT22;4734;52.778;6.798;2024-02-16T18:06:24;11.50;99.90
9389;DHT22;4734;52.778;6.798;2024-02-16T18:09:10;11.50;99.90
9389;DHT22;4734;52.778;6.798;2024-02-16T18:11:57;11.50;99.90